createdAt,value
2018-04-25T00:00:13.604Z,80.20
2018-04-25T00:02:42.735Z,80.90
2018-04-25T00:05:10.972Z,80.90
2018-04-25T00:07:40.000Z,81.70
2018-04-25T00:10:08.241Z,81.60
2018-04-25T00:12:37.855Z,82.20
2018-04-25T00:15:06.907Z,83.70
2018-04-25T00:17:35.158Z,82.90
2018-04-25T00:20:03.417Z,83.70
2018-04-25T00:22:32.446Z,84.70
2018-04-25T00:25:00.684Z,84.70
2018-04-25T00:27:29.724Z,85.80
2018-04-25T00:29:57.954Z,85.80
2018-04-25T00:32:26.297Z,86.50
2018-04-25T00:34:54.581Z,87.30
2018-04-25T00:37:22.834Z,88.10
2018-04-25T00:39:51.088Z,88.90
2018-04-25T00:42:20.133Z,90.40
2018-04-25T00:44:48.372Z,90.10
2018-04-25T00:47:17.404Z,90.60
2018-04-25T00:49:45.682Z,90.60
2018-04-25T00:52:13.969Z,90.90
2018-04-25T00:54:42.244Z,91.20
2018-04-25T00:57:10.497Z,91.60
2018-04-25T00:59:38.836Z,91.80
2018-04-25T01:02:07.055Z,91.90
2018-04-25T01:04:35.313Z,92.20
2018-04-25T01:07:04.340Z,92.60
2018-04-25T01:09:32.601Z,92.60
2018-04-25T01:12:01.646Z,93.20
2018-04-25T01:14:30.634Z,93.10
2018-04-25T01:16:58.898Z,93.00
2018-04-25T01:19:27.156Z,93.30
2018-04-25T01:21:55.411Z,93.30
2018-04-25T01:24:24.446Z,93.60
2018-04-25T01:26:53.634Z,93.60
2018-04-25T01:29:23.487Z,93.80
2018-04-25T01:31:53.706Z,93.80
2018-04-25T01:37:41.175Z,94.00
2018-04-25T01:40:09.451Z,94.30
2018-04-25T01:45:37.174Z,94.70
2018-04-25T01:50:57.973Z,95.00
2018-04-25T01:53:38.108Z,95.20
2018-04-25T01:56:24.182Z,95.30
2018-04-25T01:59:10.588Z,95.50
2018-04-25T02:01:44.528Z,95.70
2018-04-25T02:04:12.598Z,95.80
2018-04-25T02:06:40.888Z,96.10
2018-04-25T02:09:09.143Z,96.20
2018-04-25T02:11:37.393Z,96.60
2018-04-25T02:14:05.664Z,96.90
2018-04-25T02:16:33.912Z,97.00
2018-04-25T02:19:02.165Z,97.20
2018-04-25T02:21:30.458Z,97.40
2018-04-25T02:23:58.745Z,97.60
2018-04-25T02:26:27.023Z,97.70
2018-04-25T02:28:55.273Z,97.80
2018-04-25T02:31:23.518Z,98.00
2018-04-25T02:33:51.782Z,98.10
2018-04-25T02:36:20.020Z,98.30
2018-04-25T02:38:48.289Z,98.50
2018-04-25T02:41:16.593Z,98.60
2018-04-25T02:43:44.856Z,98.70
2018-04-25T02:46:13.111Z,98.80
2018-04-25T02:48:42.132Z,99.00
2018-04-25T02:51:10.455Z,99.00
2018-04-25T02:53:38.720Z,99.00
2018-04-25T02:56:06.964Z,99.00
2018-04-25T02:58:36.097Z,99.10
2018-04-25T03:01:04.339Z,99.10
2018-04-25T03:03:33.365Z,99.20
2018-04-25T03:06:01.606Z,99.20
2018-04-25T03:08:30.631Z,99.30
2018-04-25T03:10:58.940Z,99.30
2018-04-25T03:13:27.206Z,99.30
2018-04-25T03:15:55.453Z,99.30
2018-04-25T03:18:24.588Z,99.30
2018-04-25T03:20:52.836Z,99.20
2018-04-25T03:23:21.138Z,99.10
2018-04-25T03:25:49.388Z,99.20
2018-04-25T03:28:18.407Z,99.20
2018-04-25T03:30:46.670Z,99.20
2018-04-25T03:33:15.680Z,99.50
2018-04-25T03:35:43.945Z,99.50
2018-04-25T03:38:12.981Z,99.70
2018-04-25T03:40:41.258Z,99.70
2018-04-25T03:43:09.503Z,99.80
2018-04-25T03:45:38.571Z,99.90
2018-04-25T03:48:06.834Z,99.90
2018-04-25T03:50:35.255Z,99.90
2018-04-25T03:53:04.273Z,99.90
2018-04-25T03:55:32.685Z,99.90
2018-04-25T03:58:00.950Z,99.90
2018-04-25T04:00:29.233Z,99.90
2018-04-25T04:02:57.504Z,99.90
2018-04-25T04:05:25.770Z,99.90
2018-04-25T04:07:54.063Z,99.90
2018-04-25T04:10:22.343Z,99.90
2018-04-25T04:12:50.586Z,99.90
2018-04-25T04:15:19.620Z,99.90
2018-04-25T04:17:47.862Z,99.90
2018-04-25T04:20:16.884Z,99.90
2018-04-25T04:22:45.130Z,99.90
2018-04-25T04:25:13.394Z,99.90
2018-04-25T04:27:43.147Z,99.90
2018-04-25T04:30:11.416Z,99.90
2018-04-25T04:32:40.415Z,99.90
2018-04-25T04:35:09.434Z,99.90
2018-04-25T04:37:37.726Z,99.90
2018-04-25T04:40:05.981Z,99.90
2018-04-25T04:42:34.234Z,99.90
2018-04-25T04:45:02.509Z,99.90
2018-04-25T04:47:30.755Z,99.90
2018-04-25T04:49:59.009Z,99.90
2018-04-25T04:52:27.263Z,99.90
2018-04-25T04:54:56.392Z,99.90
2018-04-25T04:57:24.640Z,99.90
2018-04-25T04:59:53.660Z,99.90
2018-04-25T05:02:21.950Z,99.90
2018-04-25T05:04:56.238Z,99.90
2018-04-25T05:07:25.494Z,99.90
2018-04-25T05:09:53.774Z,99.90
2018-04-25T05:12:22.004Z,99.90
2018-04-25T05:14:50.269Z,99.90
2018-04-25T05:17:19.292Z,99.90
2018-04-25T05:19:47.593Z,99.90
2018-04-25T05:22:15.868Z,99.90
2018-04-25T05:24:44.165Z,99.90
2018-04-25T05:27:12.457Z,99.90
2018-04-25T05:29:40.724Z,99.90
2018-04-25T05:32:09.001Z,99.90
2018-04-25T05:34:37.256Z,99.90
2018-04-25T05:37:05.552Z,99.90
2018-04-25T05:39:33.825Z,99.90
2018-04-25T05:42:02.078Z,99.90
2018-04-25T05:44:31.106Z,99.90
2018-04-25T05:46:59.393Z,99.90
2018-04-25T05:49:27.725Z,99.90
2018-04-25T05:51:55.957Z,99.90
2018-04-25T05:54:24.332Z,99.90
2018-04-25T05:56:52.609Z,99.90
2018-04-25T05:59:20.906Z,99.90
2018-04-25T06:01:49.168Z,99.90
2018-04-25T06:04:17.435Z,99.90
2018-04-25T06:06:45.676Z,99.90
2018-04-25T06:09:14.712Z,99.90
2018-04-25T06:11:42.960Z,99.80
2018-04-25T06:14:11.996Z,98.80
2018-04-25T06:16:40.290Z,98.80
2018-04-25T06:19:08.661Z,98.70
2018-04-25T06:21:36.912Z,98.30
2018-04-25T06:24:05.187Z,98.30
2018-04-25T06:26:34.471Z,98.20
2018-04-25T06:29:02.698Z,98.30
2018-04-25T06:31:30.975Z,98.00
2018-04-25T06:33:59.241Z,98.40
2018-04-25T06:36:27.513Z,98.10
2018-04-25T06:38:56.533Z,97.60
2018-04-25T06:41:24.810Z,97.60
2018-04-25T06:43:53.112Z,97.50
2018-04-25T06:46:21.373Z,97.20
2018-04-25T06:48:49.637Z,97.00
2018-04-25T06:51:18.764Z,96.10
2018-04-25T06:53:47.072Z,96.10
2018-04-25T06:56:16.081Z,95.00
2018-04-25T06:58:44.339Z,95.00
2018-04-25T07:01:12.597Z,94.50
2018-04-25T07:03:40.849Z,94.30
2018-04-25T07:06:09.886Z,92.40
2018-04-25T07:08:38.139Z,92.40
2018-04-25T07:11:06.455Z,92.10
2018-04-25T07:13:34.941Z,91.20
2018-04-25T07:16:03.228Z,90.90
2018-04-25T07:18:31.468Z,89.20
2018-04-25T07:20:59.768Z,87.30
2018-04-25T07:23:28.016Z,86.70
2018-04-25T07:25:57.051Z,82.50
2018-04-25T07:28:25.303Z,82.50
2018-04-25T07:30:53.561Z,80.90
2018-04-25T07:33:22.580Z,79.70
2018-04-25T07:35:50.838Z,79.60
2018-04-25T07:38:19.855Z,79.00
2018-04-25T07:40:48.129Z,78.90
2018-04-25T07:43:16.374Z,78.00
2018-04-25T07:45:44.649Z,76.70
2018-04-25T07:48:12.893Z,75.70
2018-04-25T07:50:41.191Z,75.20
2018-04-25T07:53:09.429Z,74.70
2018-04-25T07:55:37.696Z,75.00
2018-04-25T07:58:06.736Z,72.50
2018-04-25T08:00:35.005Z,72.40
2018-04-25T08:03:03.293Z,71.40
2018-04-25T08:05:31.546Z,72.10
2018-04-25T08:07:59.788Z,72.20
2018-04-25T08:10:28.841Z,74.10
2018-04-25T08:13:08.926Z,74.10
2018-04-25T08:15:49.150Z,74.10
2018-04-25T08:18:29.310Z,74.50
2018-04-25T08:21:12.541Z,76.50
2018-04-25T08:23:40.856Z,77.80
2018-04-25T08:26:09.094Z,76.50
2018-04-25T08:28:37.413Z,76.20
2018-04-25T08:31:05.656Z,76.80
2018-04-25T08:33:33.954Z,74.90
2018-04-25T08:36:02.203Z,74.50
2018-04-25T08:38:30.455Z,72.20
2018-04-25T08:40:59.587Z,71.20
2018-04-25T08:43:28.610Z,71.10
2018-04-25T08:45:56.976Z,71.10
2018-04-25T08:48:25.234Z,72.20
2018-04-25T08:50:53.501Z,70.60
2018-04-25T08:53:22.521Z,68.50
2018-04-25T08:55:50.792Z,68.30
2018-04-25T08:58:19.104Z,66.60
2018-04-25T09:00:47.365Z,65.00
2018-04-25T09:03:15.614Z,63.60
2018-04-25T09:05:44.706Z,60.70
2018-04-25T09:08:12.927Z,60.60
2018-04-25T09:10:41.179Z,58.60
2018-04-25T09:13:09.479Z,58.20
2018-04-25T09:15:37.801Z,58.00
2018-04-25T09:18:06.000Z,57.20
2018-04-25T09:20:35.612Z,57.70
2018-04-25T09:23:04.624Z,57.50
2018-04-25T09:25:32.928Z,57.50
2018-04-25T09:28:01.186Z,58.00
2018-04-25T09:30:30.221Z,56.40
2018-04-25T09:32:58.468Z,56.40
2018-04-25T09:35:26.728Z,56.30
2018-04-25T09:37:55.740Z,57.40
2018-04-25T09:40:24.000Z,57.40
2018-04-25T09:42:53.031Z,60.90
2018-04-25T09:45:21.355Z,60.80
2018-04-25T09:47:49.590Z,62.50
2018-04-25T09:50:17.925Z,65.30
2018-04-25T09:52:46.260Z,67.00
2018-04-25T09:55:14.554Z,68.40
2018-04-25T09:57:42.941Z,69.60
2018-04-25T10:00:11.209Z,71.60
2018-04-25T10:02:39.461Z,70.90
2018-04-25T10:05:07.769Z,70.90
2018-04-25T10:07:36.045Z,70.80
2018-04-25T10:10:04.284Z,70.50
2018-04-25T10:12:33.560Z,74.30
2018-04-25T10:15:01.823Z,74.30
2018-04-25T10:17:30.086Z,74.30
2018-04-25T10:19:58.387Z,75.40
2018-04-25T10:22:26.764Z,77.50
2018-04-25T10:24:55.003Z,78.40
2018-04-25T10:27:23.261Z,78.50
2018-04-25T10:29:52.277Z,80.90
2018-04-25T10:32:20.591Z,80.90
2018-04-25T10:34:48.862Z,81.30
2018-04-25T10:37:17.130Z,82.50
2018-04-25T10:39:45.384Z,82.50
2018-04-25T10:42:14.421Z,83.60
2018-04-25T10:44:42.693Z,83.60
2018-04-25T10:47:10.973Z,84.50
2018-04-25T10:49:39.233Z,85.20
2018-04-25T10:52:08.253Z,86.00
2018-04-25T10:54:36.502Z,86.00
2018-04-25T10:57:05.542Z,86.00
2018-04-25T10:59:33.807Z,85.90
2018-04-25T11:02:02.099Z,85.90
2018-04-25T11:04:30.481Z,85.10
2018-04-25T11:06:59.430Z,82.70
2018-04-25T11:09:28.470Z,82.80
2018-04-25T11:11:56.740Z,82.70
2018-04-25T11:14:25.024Z,82.40
2018-04-25T11:16:54.222Z,83.40
2018-04-25T11:19:22.475Z,84.40
2018-04-25T11:21:51.091Z,83.80
2018-04-25T11:24:19.378Z,83.40
2018-04-25T11:26:47.643Z,83.90
2018-04-25T11:29:15.952Z,84.20
2018-04-25T11:31:44.228Z,83.90
2018-04-25T11:34:12.457Z,83.20
2018-04-25T11:36:41.587Z,83.50
2018-04-25T11:39:09.826Z,83.50
2018-04-25T11:41:38.961Z,84.70
2018-04-25T11:44:07.203Z,84.00
2018-04-25T11:46:35.465Z,84.30
2018-04-25T11:49:03.705Z,83.60
2018-04-25T11:51:31.981Z,83.50
2018-04-25T11:54:00.230Z,82.50
2018-04-25T11:56:29.241Z,81.90
2018-04-25T11:58:57.501Z,82.00
2018-04-25T12:01:26.538Z,80.70
2018-04-25T12:03:54.813Z,81.40
2018-04-25T12:06:23.197Z,79.50
2018-04-25T12:08:51.444Z,78.00
2018-04-25T12:11:19.757Z,76.20
2018-04-25T12:13:48.532Z,76.60
2018-04-25T12:16:16.789Z,75.80
2018-04-25T12:18:45.844Z,71.80
2018-04-25T12:21:14.065Z,71.70
2018-04-25T12:23:43.332Z,72.80
2018-04-25T12:26:12.618Z,75.20
2018-04-25T12:28:41.223Z,75.10
2018-04-25T12:31:09.713Z,90.00
2018-04-25T12:33:38.314Z,92.40
2018-04-25T12:36:06.824Z,92.50
2018-04-25T12:38:36.085Z,93.40
2018-04-25T12:41:04.572Z,94.30
2018-04-25T12:43:33.196Z,95.30
2018-04-25T12:46:01.643Z,96.10
2018-04-25T12:48:30.231Z,97.50
2018-04-25T12:50:59.531Z,98.70
2018-04-25T12:53:28.126Z,98.70
2018-04-25T12:55:56.708Z,99.30
2018-04-25T12:58:26.831Z,96.40
2018-04-25T13:00:56.024Z,97.30
2018-04-25T13:03:24.616Z,97.30
2018-04-25T13:05:53.006Z,97.00
2018-04-25T13:08:21.470Z,96.70
2018-04-25T13:10:49.968Z,96.50
2018-04-25T13:13:18.379Z,94.00
2018-04-25T13:15:47.700Z,90.50
2018-04-25T13:18:20.234Z,90.50
2018-04-25T13:20:48.924Z,86.90
2018-04-25T13:23:17.438Z,84.80
2018-04-25T13:25:45.894Z,85.30
2018-04-25T13:28:14.424Z,88.50
2018-04-25T13:30:42.893Z,89.20
2018-04-25T13:33:11.321Z,90.40
2018-04-25T13:35:39.930Z,90.40
2018-04-25T13:38:08.358Z,92.50
2018-04-25T13:40:37.106Z,92.20
2018-04-25T13:43:05.606Z,91.40
2018-04-25T13:45:34.283Z,91.50
2018-04-25T13:48:03.586Z,92.80
2018-04-25T13:50:32.171Z,92.80
2018-04-25T13:53:00.762Z,93.50
2018-04-25T13:55:30.062Z,94.70
2018-04-25T13:57:58.649Z,94.70
2018-04-25T14:00:27.339Z,93.60
2018-04-25T14:02:56.502Z,93.70
2018-04-25T14:05:26.047Z,93.20
2018-04-25T14:07:54.366Z,93.20
2018-04-25T14:10:23.493Z,93.30
2018-04-25T14:12:51.743Z,93.30
2018-04-25T14:15:20.774Z,92.20
2018-04-25T14:17:49.045Z,92.20
2018-04-25T14:20:17.340Z,92.50
2018-04-25T14:22:45.594Z,91.80
2018-04-25T14:25:13.893Z,92.30
2018-04-25T14:27:43.004Z,91.90
2018-04-25T14:30:11.306Z,91.90
2018-04-25T14:32:39.497Z,91.80
2018-04-25T14:35:07.820Z,91.30
2018-04-25T14:37:36.072Z,91.60
2018-04-25T14:40:05.097Z,90.90
2018-04-25T14:42:33.365Z,90.80
2018-04-25T14:45:01.700Z,91.20
2018-04-25T14:47:29.937Z,91.00
2018-04-25T14:49:58.180Z,90.30
2018-04-25T14:52:27.212Z,91.00
2018-04-25T14:54:55.497Z,91.00
2018-04-25T14:57:23.785Z,91.20
2018-04-25T14:59:52.029Z,91.20
2018-04-25T15:02:20.289Z,91.20
2018-04-25T15:04:49.328Z,91.60
2018-04-25T15:07:17.609Z,91.60
2018-04-25T15:09:45.857Z,92.50
2018-04-25T15:12:14.924Z,91.60
2018-04-25T15:14:43.169Z,91.50
2018-04-25T15:17:11.450Z,90.70
2018-04-25T15:19:39.696Z,91.10
2018-04-25T15:22:08.701Z,89.70
2018-04-25T15:24:36.942Z,89.70
2018-04-25T15:27:05.213Z,89.70
2018-04-25T15:29:33.453Z,89.40
2018-04-25T15:32:01.711Z,89.30
2018-04-25T15:34:29.952Z,90.10
2018-04-25T15:36:58.314Z,88.60
2018-04-25T15:39:26.573Z,88.80
2018-04-25T15:41:54.859Z,89.70
2018-04-25T15:44:23.095Z,89.30
2018-04-25T15:46:52.127Z,88.70
2018-04-25T15:49:20.403Z,88.60
2018-04-25T15:51:48.662Z,89.80
2018-04-25T15:54:17.660Z,90.60
2018-04-25T15:56:45.968Z,90.60
2018-04-25T15:59:14.253Z,90.50
2018-04-25T16:01:42.570Z,90.90
2018-04-25T16:04:10.796Z,90.60
2018-04-25T16:06:39.037Z,91.10
2018-04-25T16:09:07.373Z,91.70
2018-04-25T16:11:35.690Z,94.10
2018-04-25T16:14:03.969Z,96.00
2018-04-25T16:16:32.227Z,96.80
2018-04-25T16:19:00.483Z,95.00
2018-04-25T16:21:28.775Z,94.20
2018-04-25T16:23:57.024Z,93.80
2018-04-25T16:26:25.332Z,93.30
2018-04-25T16:28:53.591Z,94.50
2018-04-25T16:31:21.890Z,95.50
2018-04-25T16:33:50.194Z,95.90
2018-04-25T16:36:18.432Z,95.40
2018-04-25T16:38:47.508Z,96.30
2018-04-25T16:41:16.544Z,95.10
2018-04-25T16:43:44.926Z,95.00
2018-04-25T16:46:13.161Z,96.20
2018-04-25T16:48:42.192Z,95.50
2018-04-25T16:51:10.483Z,95.50
2018-04-25T16:53:38.756Z,95.90
2018-04-25T16:56:06.994Z,96.30
2018-04-25T16:58:36.009Z,96.70
2018-04-25T17:01:04.249Z,96.70
2018-04-25T17:03:34.018Z,96.50
2018-04-25T17:06:02.252Z,96.90
2018-04-25T17:08:31.346Z,96.50
2018-04-25T17:10:59.529Z,96.30
2018-04-25T17:13:27.783Z,96.80
2018-04-25T17:15:56.033Z,97.20
2018-04-25T17:18:24.297Z,97.20
2018-04-25T17:20:52.532Z,97.20
2018-04-25T17:23:20.864Z,97.40
2018-04-25T17:25:49.158Z,96.90
2018-04-25T17:28:17.432Z,97.20
2018-04-25T17:30:45.702Z,97.70
2018-04-25T17:33:13.990Z,98.00
2018-04-25T17:35:42.252Z,97.50
2018-04-25T17:38:11.264Z,97.70
2018-04-25T17:40:39.496Z,97.70
2018-04-25T17:43:08.541Z,98.20
2018-04-25T17:45:36.821Z,98.20
2018-04-25T17:48:05.101Z,98.50
2018-04-25T17:50:33.415Z,98.00
2018-04-25T17:53:01.644Z,98.00
2018-04-25T17:55:29.888Z,97.90
2018-04-25T17:57:58.932Z,99.00
2018-04-25T18:00:27.208Z,98.90
2018-04-25T18:02:55.472Z,99.00
2018-04-25T18:05:24.879Z,99.10
2018-04-25T18:07:53.185Z,99.10
2018-04-25T18:10:21.420Z,99.20
2018-04-25T18:12:50.456Z,99.60
2018-04-25T18:15:18.778Z,99.50
2018-04-25T18:17:47.118Z,99.80
2018-04-25T18:20:15.360Z,99.90
2018-04-25T18:22:44.401Z,99.90
2018-04-25T18:25:12.684Z,99.90
2018-04-25T18:27:40.939Z,99.90
2018-04-25T18:30:09.176Z,99.90
2018-04-25T18:32:37.520Z,99.90
2018-04-25T18:35:05.786Z,99.90
2018-04-25T18:37:34.080Z,99.90
2018-04-25T18:40:03.122Z,99.90
2018-04-25T18:42:32.127Z,99.90
2018-04-25T18:45:01.148Z,99.90
2018-04-25T18:47:29.442Z,99.90
2018-04-25T18:49:57.697Z,99.90
2018-04-25T18:52:26.705Z,99.90
2018-04-25T18:54:55.000Z,99.90
2018-04-25T18:57:23.249Z,99.90
2018-04-25T18:59:52.372Z,99.90
2018-04-25T19:02:20.619Z,99.90
2018-04-25T19:04:49.648Z,99.50
2018-04-25T19:07:17.884Z,99.50
2018-04-25T19:09:46.896Z,99.70
2018-04-25T19:12:15.897Z,99.90
2018-04-25T19:14:44.937Z,99.70
2018-04-25T19:17:13.173Z,99.70
2018-04-25T19:19:42.193Z,99.00
2018-04-25T19:22:10.576Z,99.00
2018-04-25T19:24:38.837Z,98.60
2018-04-25T19:27:07.136Z,98.10
2018-04-25T19:29:35.417Z,97.80
2018-04-25T19:32:03.702Z,97.60
2018-04-25T19:34:31.957Z,97.70
2018-04-25T19:37:00.295Z,97.50
2018-04-25T19:39:29.353Z,97.60
2018-04-25T19:41:57.598Z,97.60
2018-04-25T19:44:26.670Z,98.00
2018-04-25T19:46:54.903Z,97.90
2018-04-25T19:49:23.206Z,98.10
2018-04-25T19:51:51.472Z,98.00
2018-04-25T19:54:19.724Z,97.90
2018-04-25T19:56:48.725Z,97.30
2018-04-25T19:59:17.001Z,97.30
2018-04-25T20:01:46.077Z,97.20
2018-04-25T20:04:14.331Z,97.20
2018-04-25T20:06:42.589Z,97.10
2018-04-25T20:09:10.841Z,97.30
2018-04-25T20:11:39.869Z,96.90
2018-04-25T20:14:08.172Z,96.90
2018-04-25T20:16:36.404Z,96.90
2018-04-25T20:19:05.423Z,97.20
2018-04-25T20:21:33.747Z,97.10
2018-04-25T20:24:02.085Z,97.20
2018-04-25T20:26:30.320Z,97.20
2018-04-25T20:28:59.351Z,97.70
2018-04-25T20:31:27.635Z,97.60
2018-04-25T20:33:55.926Z,97.70
2018-04-25T20:36:24.170Z,97.70
2018-04-25T20:38:53.189Z,97.90
2018-04-25T20:41:21.424Z,97.90
2018-04-25T20:43:49.693Z,97.90
2018-04-25T20:46:17.929Z,98.10
2018-04-25T20:48:46.236Z,97.70
2018-04-25T20:51:14.593Z,97.90
2018-04-25T20:53:42.858Z,97.90
2018-04-25T20:56:11.145Z,98.00
2018-04-25T20:58:39.981Z,97.90
2018-04-25T21:01:08.217Z,97.90
2018-04-25T21:03:36.473Z,98.10
2018-04-25T21:06:04.727Z,98.30
2018-04-25T21:08:32.972Z,98.60
2018-04-25T21:11:01.265Z,98.80
2018-04-25T21:13:29.505Z,98.90
2018-04-25T21:15:57.746Z,99.00
2018-04-25T21:18:26.767Z,99.40
2018-04-25T21:20:55.922Z,99.60
2018-04-25T21:23:25.224Z,99.90
2018-04-25T21:25:53.714Z,99.90
2018-04-25T21:28:22.342Z,99.00
2018-04-25T21:30:50.756Z,99.10
2018-04-25T21:33:19.821Z,99.50
2018-04-25T21:35:48.091Z,99.50
2018-04-25T21:38:17.218Z,99.90
2018-04-25T21:40:45.501Z,99.90
2018-04-25T21:43:14.748Z,99.90
2018-04-25T21:45:43.013Z,99.90
2018-04-25T21:48:12.808Z,99.90
2018-04-25T21:50:41.169Z,99.90
2018-04-25T21:53:09.422Z,99.90
2018-04-25T21:55:37.735Z,99.90
2018-04-25T21:58:06.019Z,99.90
2018-04-25T22:00:34.998Z,99.90
2018-04-25T22:03:03.284Z,99.90
2018-04-25T22:05:31.571Z,99.90
2018-04-25T22:07:59.806Z,99.90
2018-04-25T22:10:28.838Z,99.90
2018-04-25T22:12:57.084Z,99.90
2018-04-25T22:15:26.109Z,99.90
2018-04-25T22:17:54.336Z,99.90
2018-04-25T22:20:22.690Z,99.90
2018-04-25T22:22:50.960Z,99.90
2018-04-25T22:25:19.217Z,99.90
2018-04-25T22:27:47.481Z,99.90
2018-04-25T22:30:15.792Z,99.90
2018-04-25T22:32:44.036Z,99.90
2018-04-25T22:35:13.075Z,99.90
2018-04-25T22:37:41.308Z,99.90
2018-04-25T22:40:10.340Z,99.90
2018-04-25T22:42:38.571Z,99.90
2018-04-25T22:45:06.903Z,99.90
2018-04-25T22:47:35.211Z,99.90
2018-04-25T22:50:03.489Z,99.90
2018-04-25T22:52:31.737Z,99.90
2018-04-25T22:54:59.990Z,99.90
2018-04-25T22:57:28.309Z,99.90
2018-04-25T22:59:57.376Z,99.90
2018-04-25T23:02:26.385Z,99.90
2018-04-25T23:04:54.644Z,99.90
2018-04-25T23:07:23.648Z,98.30
2018-04-25T23:09:52.668Z,97.90
2018-04-25T23:12:20.921Z,97.90
2018-04-25T23:14:49.940Z,96.00
2018-04-25T23:17:18.181Z,95.90
2018-04-25T23:19:46.435Z,95.70
2018-04-25T23:22:14.687Z,95.60
2018-04-25T23:24:42.941Z,95.10
2018-04-25T23:27:11.247Z,95.00
2018-04-25T23:29:39.541Z,92.70
2018-04-25T23:32:07.782Z,92.00
2018-04-25T23:34:36.037Z,91.60
2018-04-25T23:37:05.046Z,90.40
2018-04-25T23:39:34.077Z,89.70
2018-04-25T23:42:02.358Z,89.70
2018-04-25T23:44:30.611Z,88.70
2018-04-25T23:46:59.637Z,87.90
2018-04-25T23:49:27.920Z,87.80
2018-04-25T23:51:56.205Z,87.90
2018-04-25T23:54:24.452Z,88.80
2018-04-25T23:56:53.466Z,89.90
2018-04-25T23:59:21.733Z,89.90
